sensor_id;sensor_type;location;lat;lon;timestamp;P1;durP1;ratioP1;P2;durP2;ratioP2
6007;SDS011;3032;49.484;11.112;2022-12-29T00:01:01;1.47;;;1.30;;
6007;SDS011;3032;49.484;11.112;2022-12-29T00:03:27;2.28;;;1.25;;
6007;SDS011;3032;49.484;11.112;2022-12-29T00:05:56;2.63;;;1.80;;
6007;SDS011;3032;49.484;11.112;2022-12-29T00:08:22;1.52;;;1.42;;
6007;SDS011;3032;49.484;11.112;2022-12-29T00:11:04;1.55;;;1.45;;
6007;SDS011;3032;49.484;11.112;2022-12-29T00:13:33;1.35;;;1.05;;
6007;SDS011;3032;49.484;11.112;2022-12-29T00:16:18;2.65;;;1.50;;
6007;SDS011;3032;49.484;11.112;2022-12-29T00:18:43;1.40;;;1.30;;
6007;SDS011;3032;49.484;11.112;2022-12-29T00:21:16;2.87;;;1.63;;
6007;SDS011;3032;49.484;11.112;2022-12-29T00:24:01;1.17;;;1.08;;
6007;SDS011;3032;49.484;11.112;2022-12-29T00:26:47;1.80;;;1.65;;
6007;SDS011;3032;49.484;11.112;2022-12-29T00:29:36;1.80;;;1.50;;
6007;SDS011;3032;49.484;11.112;2022-12-29T00:32:20;1.50;;;1.40;;
6007;SDS011;3032;49.484;11.112;2022-12-29T00:35:06;1.60;;;1.50;;
6007;SDS011;3032;49.484;11.112;2022-12-29T00:37:35;1.60;;;1.50;;
6007;SDS011;3032;49.484;11.112;2022-12-29T00:40:21;2.25;;;1.75;;
6007;SDS011;3032;49.484;11.112;2022-12-29T00:43:06;1.48;;;1.38;;
6007;SDS011;3032;49.484;11.112;2022-12-29T00:45:50;2.05;;;1.58;;
6007;SDS011;3032;49.484;11.112;2022-12-29T00:48:15;1.47;;;1.40;;
6007;SDS011;3032;49.484;11.112;2022-12-29T00:51:01;1.98;;;1.40;;
6007;SDS011;3032;49.484;11.112;2022-12-29T00:53:26;1.93;;;1.50;;
6007;SDS011;3032;49.484;11.112;2022-12-29T00:55:52;1.23;;;1.23;;
6007;SDS011;3032;49.484;11.112;2022-12-29T00:58:17;1.20;;;1.10;;
6007;SDS011;3032;49.484;11.112;2022-12-29T01:00:43;1.33;;;1.23;;
6007;SDS011;3032;49.484;11.112;2022-12-29T01:03:08;1.40;;;1.30;;
6007;SDS011;3032;49.484;11.112;2022-12-29T01:05:37;1.00;;;1.00;;
6007;SDS011;3032;49.484;11.112;2022-12-29T01:08:02;1.63;;;1.50;;
6007;SDS011;3032;49.484;11.112;2022-12-29T01:10:28;1.60;;;1.50;;
6007;SDS011;3032;49.484;11.112;2022-12-29T01:12:54;1.50;;;1.40;;
6007;SDS011;3032;49.484;11.112;2022-12-29T01:15:19;1.43;;;1.33;;
6007;SDS011;3032;49.484;11.112;2022-12-29T01:17:45;2.20;;;1.30;;
6007;SDS011;3032;49.484;11.112;2022-12-29T01:20:11;1.37;;;1.30;;
6007;SDS011;3032;49.484;11.112;2022-12-29T01:22:37;1.25;;;1.23;;
6007;SDS011;3032;49.484;11.112;2022-12-29T01:25:03;1.27;;;1.15;;
6007;SDS011;3032;49.484;11.112;2022-12-29T01:27:29;1.98;;;1.60;;
6007;SDS011;3032;49.484;11.112;2022-12-29T01:29:55;2.60;;;1.23;;
6007;SDS011;3032;49.484;11.112;2022-12-29T01:32:21;1.50;;;1.40;;
6007;SDS011;3032;49.484;11.112;2022-12-29T01:34:46;1.67;;;1.57;;
6007;SDS011;3032;49.484;11.112;2022-12-29T01:37:12;1.50;;;1.40;;
6007;SDS011;3032;49.484;11.112;2022-12-29T01:39:37;1.40;;;1.30;;
6007;SDS011;3032;49.484;11.112;2022-12-29T01:42:03;3.93;;;1.40;;
6007;SDS011;3032;49.484;11.112;2022-12-29T01:44:41;1.37;;;1.30;;
6007;SDS011;3032;49.484;11.112;2022-12-29T01:47:25;1.50;;;1.40;;
6007;SDS011;3032;49.484;11.112;2022-12-29T01:49:52;1.70;;;1.60;;
6007;SDS011;3032;49.484;11.112;2022-12-29T01:52:21;1.63;;;1.52;;
6007;SDS011;3032;49.484;11.112;2022-12-29T01:54:48;1.50;;;1.40;;
6007;SDS011;3032;49.484;11.112;2022-12-29T01:57:19;1.40;;;1.30;;
6007;SDS011;3032;49.484;11.112;2022-12-29T01:59:51;2.10;;;1.77;;
6007;SDS011;3032;49.484;11.112;2022-12-29T02:02:20;2.47;;;1.60;;
6007;SDS011;3032;49.484;11.112;2022-12-29T02:04:46;2.50;;;1.60;;
6007;SDS011;3032;49.484;11.112;2022-12-29T02:07:17;1.65;;;1.55;;
6007;SDS011;3032;49.484;11.112;2022-12-29T02:09:49;1.63;;;1.52;;
6007;SDS011;3032;49.484;11.112;2022-12-29T02:12:18;1.95;;;1.63;;
6007;SDS011;3032;49.484;11.112;2022-12-29T02:14:46;1.10;;;1.00;;
6007;SDS011;3032;49.484;11.112;2022-12-29T02:45:26;1.65;;;1.23;;
6007;SDS011;3032;49.484;11.112;2022-12-29T02:50:40;1.73;;;1.63;;
6007;SDS011;3032;49.484;11.112;2022-12-29T02:53:12;1.73;;;1.48;;
6007;SDS011;3032;49.484;11.112;2022-12-29T02:55:47;1.95;;;1.30;;
6007;SDS011;3032;49.484;11.112;2022-12-29T03:01:04;1.75;;;1.65;;
6007;SDS011;3032;49.484;11.112;2022-12-29T03:04:31;1.90;;;1.80;;
6007;SDS011;3032;49.484;11.112;2022-12-29T03:11:56;1.30;;;1.30;;
6007;SDS011;3032;49.484;11.112;2022-12-29T03:14:46;1.92;;;1.48;;
6007;SDS011;3032;49.484;11.112;2022-12-29T03:17:58;1.60;;;1.50;;
6007;SDS011;3032;49.484;11.112;2022-12-29T03:20:31;1.50;;;1.40;;
6007;SDS011;3032;49.484;11.112;2022-12-29T03:23:06;1.98;;;1.88;;
6007;SDS011;3032;49.484;11.112;2022-12-29T03:25:36;3.65;;;1.50;;
6007;SDS011;3032;49.484;11.112;2022-12-29T03:28:12;1.63;;;1.53;;
6007;SDS011;3032;49.484;11.112;2022-12-29T03:30:43;1.55;;;1.45;;
6007;SDS011;3032;49.484;11.112;2022-12-29T03:33:10;1.50;;;1.40;;
6007;SDS011;3032;49.484;11.112;2022-12-29T03:35:40;5.15;;;1.60;;
6007;SDS011;3032;49.484;11.112;2022-12-29T03:38:16;1.50;;;1.40;;
6007;SDS011;3032;49.484;11.112;2022-12-29T03:40:50;2.75;;;1.30;;
6007;SDS011;3032;49.484;11.112;2022-12-29T03:43:18;1.60;;;1.50;;
6007;SDS011;3032;49.484;11.112;2022-12-29T03:45:44;1.25;;;1.23;;
6007;SDS011;3032;49.484;11.112;2022-12-29T03:48:10;1.67;;;1.57;;
6007;SDS011;3032;49.484;11.112;2022-12-29T03:50:35;1.53;;;1.43;;
6007;SDS011;3032;49.484;11.112;2022-12-29T03:53:01;1.60;;;1.50;;
6007;SDS011;3032;49.484;11.112;2022-12-29T03:55:27;1.80;;;1.30;;
6007;SDS011;3032;49.484;11.112;2022-12-29T03:57:52;1.60;;;1.50;;
6007;SDS011;3032;49.484;11.112;2022-12-29T04:00:18;1.77;;;1.47;;
6007;SDS011;3032;49.484;11.112;2022-12-29T04:02:43;3.43;;;1.40;;
6007;SDS011;3032;49.484;11.112;2022-12-29T04:05:09;1.53;;;1.43;;
6007;SDS011;3032;49.484;11.112;2022-12-29T04:07:34;4.03;;;1.50;;
6007;SDS011;3032;49.484;11.112;2022-12-29T04:10:00;1.60;;;1.50;;
6007;SDS011;3032;49.484;11.112;2022-12-29T04:12:25;1.47;;;1.30;;
6007;SDS011;3032;49.484;11.112;2022-12-29T04:14:51;1.53;;;1.30;;
6007;SDS011;3032;49.484;11.112;2022-12-29T04:17:16;1.23;;;1.13;;
6007;SDS011;3032;49.484;11.112;2022-12-29T04:19:42;1.73;;;1.50;;
6007;SDS011;3032;49.484;11.112;2022-12-29T04:22:07;4.00;;;1.30;;
6007;SDS011;3032;49.484;11.112;2022-12-29T04:24:33;1.43;;;1.20;;
6007;SDS011;3032;49.484;11.112;2022-12-29T04:26:58;1.80;;;1.50;;
6007;SDS011;3032;49.484;11.112;2022-12-29T04:29:24;1.57;;;1.47;;
6007;SDS011;3032;49.484;11.112;2022-12-29T04:31:50;1.40;;;1.20;;
6007;SDS011;3032;49.484;11.112;2022-12-29T04:34:15;1.17;;;1.17;;
6007;SDS011;3032;49.484;11.112;2022-12-29T04:36:41;1.50;;;1.40;;
6007;SDS011;3032;49.484;11.112;2022-12-29T04:39:06;1.50;;;1.40;;
6007;SDS011;3032;49.484;11.112;2022-12-29T04:41:32;1.80;;;1.50;;
6007;SDS011;3032;49.484;11.112;2022-12-29T04:43:58;1.53;;;1.43;;
6007;SDS011;3032;49.484;11.112;2022-12-29T04:46:23;1.60;;;1.47;;
6007;SDS011;3032;49.484;11.112;2022-12-29T04:48:49;1.50;;;1.40;;
6007;SDS011;3032;49.484;11.112;2022-12-29T04:51:14;1.37;;;1.33;;
6007;SDS011;3032;49.484;11.112;2022-12-29T04:53:40;1.30;;;1.20;;
6007;SDS011;3032;49.484;11.112;2022-12-29T04:56:06;1.53;;;1.37;;
6007;SDS011;3032;49.484;11.112;2022-12-29T04:58:32;1.47;;;1.20;;
6007;SDS011;3032;49.484;11.112;2022-12-29T05:00:58;1.45;;;1.40;;
6007;SDS011;3032;49.484;11.112;2022-12-29T05:03:23;1.17;;;1.17;;
6007;SDS011;3032;49.484;11.112;2022-12-29T05:05:49;3.00;;;1.43;;
6007;SDS011;3032;49.484;11.112;2022-12-29T05:08:17;1.40;;;1.30;;
6007;SDS011;3032;49.484;11.112;2022-12-29T05:10:46;1.60;;;1.50;;
6007;SDS011;3032;49.484;11.112;2022-12-29T05:13:12;1.63;;;1.20;;
6007;SDS011;3032;49.484;11.112;2022-12-29T05:15:37;2.93;;;1.70;;
6007;SDS011;3032;49.484;11.112;2022-12-29T05:18:03;1.50;;;1.40;;
6007;SDS011;3032;49.484;11.112;2022-12-29T05:20:29;2.90;;;1.53;;
6007;SDS011;3032;49.484;11.112;2022-12-29T05:22:54;2.70;;;1.50;;
6007;SDS011;3032;49.484;11.112;2022-12-29T05:25:20;2.23;;;1.60;;
6007;SDS011;3032;49.484;11.112;2022-12-29T05:27:45;2.37;;;1.30;;
6007;SDS011;3032;49.484;11.112;2022-12-29T05:30:11;2.03;;;1.60;;
6007;SDS011;3032;49.484;11.112;2022-12-29T05:32:37;1.75;;;1.38;;
6007;SDS011;3032;49.484;11.112;2022-12-29T05:35:03;1.70;;;1.60;;
6007;SDS011;3032;49.484;11.112;2022-12-29T05:37:28;3.00;;;1.70;;
6007;SDS011;3032;49.484;11.112;2022-12-29T05:39:54;1.80;;;1.70;;
6007;SDS011;3032;49.484;11.112;2022-12-29T05:42:20;1.93;;;1.67;;
6007;SDS011;3032;49.484;11.112;2022-12-29T05:44:45;2.83;;;1.30;;
6007;SDS011;3032;49.484;11.112;2022-12-29T05:47:11;1.60;;;1.50;;
6007;SDS011;3032;49.484;11.112;2022-12-29T05:49:37;1.40;;;1.30;;
6007;SDS011;3032;49.484;11.112;2022-12-29T05:52:02;1.60;;;1.50;;
6007;SDS011;3032;49.484;11.112;2022-12-29T05:54:28;1.53;;;1.47;;
6007;SDS011;3032;49.484;11.112;2022-12-29T05:56:53;1.60;;;1.50;;
6007;SDS011;3032;49.484;11.112;2022-12-29T05:59:19;1.17;;;1.13;;
6007;SDS011;3032;49.484;11.112;2022-12-29T06:01:45;2.13;;;1.10;;
6007;SDS011;3032;49.484;11.112;2022-12-29T06:04:10;2.73;;;1.30;;
6007;SDS011;3032;49.484;11.112;2022-12-29T06:06:36;4.57;;;1.80;;
6007;SDS011;3032;49.484;11.112;2022-12-29T06:09:01;1.13;;;1.13;;
6007;SDS011;3032;49.484;11.112;2022-12-29T06:11:27;1.40;;;1.30;;
6007;SDS011;3032;49.484;11.112;2022-12-29T06:13:52;2.93;;;1.90;;
6007;SDS011;3032;49.484;11.112;2022-12-29T06:16:18;3.43;;;1.87;;
6007;SDS011;3032;49.484;11.112;2022-12-29T06:18:43;1.20;;;1.20;;
6007;SDS011;3032;49.484;11.112;2022-12-29T06:21:09;1.70;;;1.20;;
6007;SDS011;3032;49.484;11.112;2022-12-29T06:23:35;2.00;;;1.77;;
6007;SDS011;3032;49.484;11.112;2022-12-29T06:26:00;2.20;;;1.40;;
6007;SDS011;3032;49.484;11.112;2022-12-29T06:28:26;0.90;;;0.90;;
6007;SDS011;3032;49.484;11.112;2022-12-29T06:30:51;1.43;;;1.33;;
6007;SDS011;3032;49.484;11.112;2022-12-29T06:33:17;1.73;;;1.63;;
6007;SDS011;3032;49.484;11.112;2022-12-29T06:35:42;1.50;;;1.40;;
6007;SDS011;3032;49.484;11.112;2022-12-29T06:38:08;1.20;;;1.20;;
6007;SDS011;3032;49.484;11.112;2022-12-29T06:40:34;2.80;;;1.27;;
6007;SDS011;3032;49.484;11.112;2022-12-29T06:43:00;1.77;;;1.40;;
6007;SDS011;3032;49.484;11.112;2022-12-29T06:45:25;1.83;;;1.70;;
6007;SDS011;3032;49.484;11.112;2022-12-29T06:47:51;4.20;;;1.50;;
6007;SDS011;3032;49.484;11.112;2022-12-29T06:50:17;1.53;;;1.43;;
6007;SDS011;3032;49.484;11.112;2022-12-29T06:52:42;1.40;;;1.30;;
6007;SDS011;3032;49.484;11.112;2022-12-29T06:55:08;1.57;;;1.40;;
6007;SDS011;3032;49.484;11.112;2022-12-29T06:57:33;1.40;;;1.30;;
6007;SDS011;3032;49.484;11.112;2022-12-29T06:59:59;2.70;;;1.20;;
6007;SDS011;3032;49.484;11.112;2022-12-29T07:02:24;2.20;;;1.30;;
6007;SDS011;3032;49.484;11.112;2022-12-29T07:04:53;1.87;;;1.30;;
6007;SDS011;3032;49.484;11.112;2022-12-29T07:07:19;2.28;;;1.30;;
6007;SDS011;3032;49.484;11.112;2022-12-29T07:09:45;1.20;;;1.10;;
6007;SDS011;3032;49.484;11.112;2022-12-29T07:12:11;2.08;;;1.27;;
6007;SDS011;3032;49.484;11.112;2022-12-29T07:14:37;2.00;;;1.20;;
6007;SDS011;3032;49.484;11.112;2022-12-29T07:17:02;3.57;;;1.60;;
6007;SDS011;3032;49.484;11.112;2022-12-29T07:19:31;2.03;;;1.13;;
6007;SDS011;3032;49.484;11.112;2022-12-29T07:21:57;1.52;;;1.40;;
6007;SDS011;3032;49.484;11.112;2022-12-29T07:24:24;1.48;;;1.30;;
6007;SDS011;3032;49.484;11.112;2022-12-29T07:26:50;2.00;;;1.80;;
6007;SDS011;3032;49.484;11.112;2022-12-29T07:29:16;1.30;;;1.10;;
6007;SDS011;3032;49.484;11.112;2022-12-29T07:31:42;4.20;;;1.33;;
6007;SDS011;3032;49.484;11.112;2022-12-29T07:34:08;4.40;;;1.43;;
6007;SDS011;3032;49.484;11.112;2022-12-29T07:36:33;1.40;;;1.30;;
6007;SDS011;3032;49.484;11.112;2022-12-29T07:38:59;1.30;;;1.20;;
6007;SDS011;3032;49.484;11.112;2022-12-29T07:41:24;1.40;;;1.30;;
6007;SDS011;3032;49.484;11.112;2022-12-29T07:43:50;4.13;;;1.47;;
6007;SDS011;3032;49.484;11.112;2022-12-29T07:46:15;1.47;;;1.13;;
6007;SDS011;3032;49.484;11.112;2022-12-29T07:48:41;1.43;;;1.20;;
6007;SDS011;3032;49.484;11.112;2022-12-29T07:51:06;2.50;;;1.30;;
6007;SDS011;3032;49.484;11.112;2022-12-29T07:53:32;1.30;;;1.20;;
6007;SDS011;3032;49.484;11.112;2022-12-29T07:55:57;1.43;;;1.30;;
6007;SDS011;3032;49.484;11.112;2022-12-29T07:58:23;1.73;;;1.60;;
6007;SDS011;3032;49.484;11.112;2022-12-29T08:00:52;2.17;;;2.00;;
6007;SDS011;3032;49.484;11.112;2022-12-29T08:03:21;2.30;;;2.10;;
6007;SDS011;3032;49.484;11.112;2022-12-29T08:05:47;3.97;;;1.85;;
6007;SDS011;3032;49.484;11.112;2022-12-29T08:08:13;3.40;;;1.87;;
6007;SDS011;3032;49.484;11.112;2022-12-29T08:10:39;1.60;;;1.50;;
6007;SDS011;3032;49.484;11.112;2022-12-29T08:13:04;3.20;;;2.30;;
6007;SDS011;3032;49.484;11.112;2022-12-29T08:15:30;1.50;;;1.40;;
6007;SDS011;3032;49.484;11.112;2022-12-29T08:17:55;1.77;;;1.67;;
6007;SDS011;3032;49.484;11.112;2022-12-29T08:20:21;2.23;;;1.60;;
6007;SDS011;3032;49.484;11.112;2022-12-29T08:22:46;1.63;;;1.43;;
6007;SDS011;3032;49.484;11.112;2022-12-29T08:25:12;1.17;;;1.17;;
6007;SDS011;3032;49.484;11.112;2022-12-29T08:27:38;1.70;;;1.60;;
6007;SDS011;3032;49.484;11.112;2022-12-29T08:30:03;1.70;;;1.50;;
6007;SDS011;3032;49.484;11.112;2022-12-29T08:32:29;2.55;;;1.45;;
6007;SDS011;3032;49.484;11.112;2022-12-29T08:34:55;1.57;;;1.47;;
6007;SDS011;3032;49.484;11.112;2022-12-29T08:37:20;1.70;;;1.60;;
6007;SDS011;3032;49.484;11.112;2022-12-29T08:39:47;3.55;;;1.60;;
6007;SDS011;3032;49.484;11.112;2022-12-29T08:42:12;2.20;;;1.30;;
6007;SDS011;3032;49.484;11.112;2022-12-29T08:44:38;3.97;;;1.27;;
6007;SDS011;3032;49.484;11.112;2022-12-29T08:47:04;2.53;;;1.60;;
6007;SDS011;3032;49.484;11.112;2022-12-29T08:49:30;1.53;;;1.43;;
6007;SDS011;3032;49.484;11.112;2022-12-29T08:51:55;2.57;;;1.60;;
6007;SDS011;3032;49.484;11.112;2022-12-29T08:54:21;1.37;;;1.27;;
6007;SDS011;3032;49.484;11.112;2022-12-29T08:56:46;1.83;;;1.73;;
6007;SDS011;3032;49.484;11.112;2022-12-29T08:59:12;1.60;;;1.50;;
6007;SDS011;3032;49.484;11.112;2022-12-29T09:01:38;1.70;;;1.37;;
6007;SDS011;3032;49.484;11.112;2022-12-29T09:04:05;1.40;;;1.30;;
6007;SDS011;3032;49.484;11.112;2022-12-29T09:06:31;2.40;;;1.40;;
6007;SDS011;3032;49.484;11.112;2022-12-29T09:08:56;1.30;;;1.20;;
6007;SDS011;3032;49.484;11.112;2022-12-29T09:11:23;1.50;;;1.40;;
6007;SDS011;3032;49.484;11.112;2022-12-29T09:13:49;1.60;;;1.38;;
6007;SDS011;3032;49.484;11.112;2022-12-29T09:16:15;2.08;;;1.60;;
6007;SDS011;3032;49.484;11.112;2022-12-29T09:18:42;1.65;;;1.55;;
6007;SDS011;3032;49.484;11.112;2022-12-29T09:21:09;1.45;;;1.35;;
6007;SDS011;3032;49.484;11.112;2022-12-29T09:23:35;1.65;;;1.55;;
6007;SDS011;3032;49.484;11.112;2022-12-29T09:26:02;1.75;;;1.30;;
6007;SDS011;3032;49.484;11.112;2022-12-29T09:28:28;1.50;;;1.50;;
6007;SDS011;3032;49.484;11.112;2022-12-29T09:30:55;2.08;;;1.45;;
6007;SDS011;3032;49.484;11.112;2022-12-29T09:33:21;1.90;;;1.58;;
6007;SDS011;3032;49.484;11.112;2022-12-29T09:35:51;1.60;;;1.50;;
6007;SDS011;3032;49.484;11.112;2022-12-29T09:38:18;1.73;;;1.50;;
6007;SDS011;3032;49.484;11.112;2022-12-29T09:40:45;2.92;;;1.50;;
6007;SDS011;3032;49.484;11.112;2022-12-29T09:46:25;1.80;;;1.70;;
6007;SDS011;3032;49.484;11.112;2022-12-29T09:48:57;1.83;;;1.73;;
6007;SDS011;3032;49.484;11.112;2022-12-29T09:51:28;3.67;;;1.60;;
6007;SDS011;3032;49.484;11.112;2022-12-29T09:53:57;3.72;;;2.00;;
6007;SDS011;3032;49.484;11.112;2022-12-29T09:56:25;1.70;;;1.60;;
6007;SDS011;3032;49.484;11.112;2022-12-29T09:58:58;2.67;;;1.50;;
6007;SDS011;3032;49.484;11.112;2022-12-29T10:01:32;1.70;;;1.60;;
6007;SDS011;3032;49.484;11.112;2022-12-29T10:03:59;1.70;;;1.60;;
6007;SDS011;3032;49.484;11.112;2022-12-29T10:12:38;1.77;;;1.50;;
6007;SDS011;3032;49.484;11.112;2022-12-29T10:21:12;3.92;;;1.88;;
6007;SDS011;3032;49.484;11.112;2022-12-29T10:24:04;1.67;;;1.58;;
6007;SDS011;3032;49.484;11.112;2022-12-29T10:26:37;2.95;;;1.90;;
6007;SDS011;3032;49.484;11.112;2022-12-29T10:29:16;2.35;;;2.10;;
6007;SDS011;3032;49.484;11.112;2022-12-29T10:31:47;1.80;;;1.70;;
6007;SDS011;3032;49.484;11.112;2022-12-29T10:37:05;1.70;;;1.60;;
6007;SDS011;3032;49.484;11.112;2022-12-29T10:39:41;1.90;;;1.80;;
6007;SDS011;3032;49.484;11.112;2022-12-29T10:42:27;1.50;;;1.40;;
6007;SDS011;3032;49.484;11.112;2022-12-29T10:44:58;4.88;;;1.90;;
6007;SDS011;3032;49.484;11.112;2022-12-29T10:47:28;1.60;;;1.50;;
6007;SDS011;3032;49.484;11.112;2022-12-29T10:50:00;2.28;;;1.92;;
6007;SDS011;3032;49.484;11.112;2022-12-29T10:52:29;3.75;;;2.17;;
6007;SDS011;3032;49.484;11.112;2022-12-29T10:54:58;3.45;;;2.05;;
6007;SDS011;3032;49.484;11.112;2022-12-29T10:57:31;2.50;;;2.30;;
6007;SDS011;3032;49.484;11.112;2022-12-29T10:59:59;2.92;;;1.80;;
6007;SDS011;3032;49.484;11.112;2022-12-29T11:08:10;2.40;;;2.20;;
6007;SDS011;3032;49.484;11.112;2022-12-29T11:10:39;2.13;;;1.50;;
6007;SDS011;3032;49.484;11.112;2022-12-29T11:13:18;4.35;;;2.30;;
6007;SDS011;3032;49.484;11.112;2022-12-29T11:15:49;3.33;;;2.65;;
6007;SDS011;3032;49.484;11.112;2022-12-29T11:18:20;3.58;;;2.17;;
6007;SDS011;3032;49.484;11.112;2022-12-29T11:20:51;2.13;;;1.92;;
6007;SDS011;3032;49.484;11.112;2022-12-29T11:26:05;5.13;;;2.50;;
6007;SDS011;3032;49.484;11.112;2022-12-29T11:28:33;3.67;;;2.47;;
6007;SDS011;3032;49.484;11.112;2022-12-29T11:30:59;2.23;;;1.73;;
6007;SDS011;3032;49.484;11.112;2022-12-29T11:33:29;6.07;;;3.40;;
6007;SDS011;3032;49.484;11.112;2022-12-29T11:36:01;4.05;;;2.47;;
6007;SDS011;3032;49.484;11.112;2022-12-29T11:38:39;2.72;;;2.53;;
6007;SDS011;3032;49.484;11.112;2022-12-29T11:41:13;4.32;;;2.17;;
6007;SDS011;3032;49.484;11.112;2022-12-29T11:43:55;1.92;;;1.80;;
6007;SDS011;3032;49.484;11.112;2022-12-29T11:46:34;2.47;;;2.20;;
6007;SDS011;3032;49.484;11.112;2022-12-29T11:49:02;3.67;;;1.90;;
6007;SDS011;3032;49.484;11.112;2022-12-29T11:51:30;3.25;;;1.80;;
6007;SDS011;3032;49.484;11.112;2022-12-29T11:53:59;5.05;;;2.38;;
6007;SDS011;3032;49.484;11.112;2022-12-29T11:56:40;3.90;;;2.22;;
6007;SDS011;3032;49.484;11.112;2022-12-29T12:01:55;2.97;;;2.22;;
6007;SDS011;3032;49.484;11.112;2022-12-29T12:04:23;5.30;;;2.10;;
6007;SDS011;3032;49.484;11.112;2022-12-29T12:06:57;3.55;;;1.88;;
6007;SDS011;3032;49.484;11.112;2022-12-29T12:09:36;1.80;;;1.70;;
6007;SDS011;3032;49.484;11.112;2022-12-29T12:12:37;2.72;;;2.30;;
6007;SDS011;3032;49.484;11.112;2022-12-29T12:15:08;2.33;;;2.00;;
6007;SDS011;3032;49.484;11.112;2022-12-29T12:18:29;3.85;;;2.30;;
6007;SDS011;3032;49.484;11.112;2022-12-29T12:23:28;2.35;;;2.10;;
6007;SDS011;3032;49.484;11.112;2022-12-29T12:26:11;2.85;;;2.30;;
6007;SDS011;3032;49.484;11.112;2022-12-29T12:28:49;3.72;;;2.20;;
6007;SDS011;3032;49.484;11.112;2022-12-29T12:31:23;2.45;;;2.05;;
6007;SDS011;3032;49.484;11.112;2022-12-29T12:33:58;3.28;;;2.05;;
6007;SDS011;3032;49.484;11.112;2022-12-29T12:44:37;2.65;;;2.10;;
6007;SDS011;3032;49.484;11.112;2022-12-29T12:47:24;2.55;;;2.10;;
6007;SDS011;3032;49.484;11.112;2022-12-29T13:01:34;2.95;;;1.92;;
6007;SDS011;3032;49.484;11.112;2022-12-29T13:04:26;3.00;;;2.03;;
6007;SDS011;3032;49.484;11.112;2022-12-29T13:21:31;3.05;;;2.20;;
6007;SDS011;3032;49.484;11.112;2022-12-29T13:26:50;2.10;;;2.00;;
6007;SDS011;3032;49.484;11.112;2022-12-29T13:29:32;5.15;;;3.08;;
6007;SDS011;3032;49.484;11.112;2022-12-29T13:34:53;3.90;;;2.80;;
6007;SDS011;3032;49.484;11.112;2022-12-29T13:37:51;2.88;;;2.67;;
6007;SDS011;3032;49.484;11.112;2022-12-29T13:40:22;4.90;;;2.70;;
6007;SDS011;3032;49.484;11.112;2022-12-29T13:42:50;4.90;;;3.20;;
6007;SDS011;3032;49.484;11.112;2022-12-29T13:45:21;3.63;;;2.80;;
6007;SDS011;3032;49.484;11.112;2022-12-29T13:47:54;3.30;;;2.95;;
6007;SDS011;3032;49.484;11.112;2022-12-29T13:50:25;3.80;;;3.00;;
6007;SDS011;3032;49.484;11.112;2022-12-29T13:53:00;4.22;;;2.55;;
6007;SDS011;3032;49.484;11.112;2022-12-29T14:03:57;3.38;;;3.10;;
6007;SDS011;3032;49.484;11.112;2022-12-29T14:06:31;3.55;;;3.15;;
6007;SDS011;3032;49.484;11.112;2022-12-29T14:09:03;3.03;;;2.83;;
6007;SDS011;3032;49.484;11.112;2022-12-29T14:11:36;3.72;;;3.42;;
6007;SDS011;3032;49.484;11.112;2022-12-29T14:16:50;3.15;;;2.85;;
6007;SDS011;3032;49.484;11.112;2022-12-29T14:19:17;4.25;;;2.50;;
6007;SDS011;3032;49.484;11.112;2022-12-29T14:22:02;7.30;;;2.67;;
6007;SDS011;3032;49.484;11.112;2022-12-29T14:26:58;3.55;;;2.65;;
6007;SDS011;3032;49.484;11.112;2022-12-29T14:31:49;3.20;;;2.30;;
6007;SDS011;3032;49.484;11.112;2022-12-29T14:34:21;5.00;;;2.33;;
6007;SDS011;3032;49.484;11.112;2022-12-29T14:39:35;2.60;;;2.40;;
6007;SDS011;3032;49.484;11.112;2022-12-29T14:42:10;2.40;;;2.20;;
6007;SDS011;3032;49.484;11.112;2022-12-29T14:47:31;3.38;;;2.50;;
6007;SDS011;3032;49.484;11.112;2022-12-29T14:50:03;5.03;;;3.33;;
6007;SDS011;3032;49.484;11.112;2022-12-29T14:52:32;5.60;;;2.47;;
6007;SDS011;3032;49.484;11.112;2022-12-29T14:55:28;3.50;;;2.00;;
6007;SDS011;3032;49.484;11.112;2022-12-29T14:58:01;5.00;;;2.55;;
6007;SDS011;3032;49.484;11.112;2022-12-29T15:00:33;2.50;;;2.40;;
6007;SDS011;3032;49.484;11.112;2022-12-29T15:03:07;5.05;;;3.42;;
6007;SDS011;3032;49.484;11.112;2022-12-29T15:08:39;2.55;;;2.35;;
6007;SDS011;3032;49.484;11.112;2022-12-29T15:11:21;3.42;;;2.35;;
6007;SDS011;3032;49.484;11.112;2022-12-29T15:17:27;7.63;;;2.60;;
6007;SDS011;3032;49.484;11.112;2022-12-29T15:19:56;3.45;;;2.67;;
6007;SDS011;3032;49.484;11.112;2022-12-29T15:22:23;6.28;;;2.42;;
6007;SDS011;3032;49.484;11.112;2022-12-29T15:24:50;2.97;;;2.28;;
6007;SDS011;3032;49.484;11.112;2022-12-29T15:27:24;2.72;;;2.53;;
6007;SDS011;3032;49.484;11.112;2022-12-29T15:29:58;6.28;;;2.78;;
6007;SDS011;3032;49.484;11.112;2022-12-29T15:32:29;3.83;;;2.30;;
6007;SDS011;3032;49.484;11.112;2022-12-29T15:35:09;2.70;;;2.50;;
6007;SDS011;3032;49.484;11.112;2022-12-29T15:37:52;3.47;;;2.70;;
6007;SDS011;3032;49.484;11.112;2022-12-29T15:40:21;2.63;;;2.43;;
6007;SDS011;3032;49.484;11.112;2022-12-29T15:45:26;2.67;;;2.28;;
6007;SDS011;3032;49.484;11.112;2022-12-29T15:47:58;6.78;;;3.05;;
6007;SDS011;3032;49.484;11.112;2022-12-29T15:50:28;4.00;;;2.92;;
6007;SDS011;3032;49.484;11.112;2022-12-29T15:52:56;5.47;;;2.60;;
6007;SDS011;3032;49.484;11.112;2022-12-29T15:55:28;4.93;;;3.00;;
6007;SDS011;3032;49.484;11.112;2022-12-29T15:57:58;3.20;;;2.78;;
6007;SDS011;3032;49.484;11.112;2022-12-29T16:00:26;2.80;;;2.60;;
6007;SDS011;3032;49.484;11.112;2022-12-29T16:02:58;3.30;;;2.33;;
6007;SDS011;3032;49.484;11.112;2022-12-29T16:05:35;3.10;;;2.45;;
6007;SDS011;3032;49.484;11.112;2022-12-29T16:08:03;2.88;;;2.58;;
6007;SDS011;3032;49.484;11.112;2022-12-29T16:10:46;4.57;;;3.30;;
6007;SDS011;3032;49.484;11.112;2022-12-29T16:13:31;4.90;;;3.13;;
6007;SDS011;3032;49.484;11.112;2022-12-29T16:18:36;7.95;;;3.25;;
6007;SDS011;3032;49.484;11.112;2022-12-29T16:21:03;2.70;;;2.50;;
6007;SDS011;3032;49.484;11.112;2022-12-29T16:23:30;5.75;;;3.72;;
6007;SDS011;3032;49.484;11.112;2022-12-29T16:25:57;3.88;;;3.25;;
6007;SDS011;3032;49.484;11.112;2022-12-29T16:28:25;5.32;;;3.35;;
6007;SDS011;3032;49.484;11.112;2022-12-29T16:31:03;4.65;;;3.15;;
6007;SDS011;3032;49.484;11.112;2022-12-29T16:33:46;2.70;;;2.50;;
6007;SDS011;3032;49.484;11.112;2022-12-29T16:36:22;5.43;;;2.75;;
6007;SDS011;3032;49.484;11.112;2022-12-29T16:38:48;3.05;;;2.80;;
6007;SDS011;3032;49.484;11.112;2022-12-29T16:41:27;4.13;;;3.03;;
6007;SDS011;3032;49.484;11.112;2022-12-29T16:49:26;5.63;;;3.05;;
6007;SDS011;3032;49.484;11.112;2022-12-29T16:51:52;4.20;;;2.78;;
6007;SDS011;3032;49.484;11.112;2022-12-29T16:54:23;4.38;;;3.40;;
6007;SDS011;3032;49.484;11.112;2022-12-29T16:56:52;4.28;;;2.75;;
6007;SDS011;3032;49.484;11.112;2022-12-29T16:59:25;3.03;;;2.83;;
6007;SDS011;3032;49.484;11.112;2022-12-29T17:02:00;4.43;;;3.47;;
6007;SDS011;3032;49.484;11.112;2022-12-29T17:04:30;4.90;;;3.42;;
6007;SDS011;3032;49.484;11.112;2022-12-29T17:06:56;3.40;;;2.93;;
6007;SDS011;3032;49.484;11.112;2022-12-29T17:09:22;3.90;;;3.57;;
6007;SDS011;3032;49.484;11.112;2022-12-29T17:11:54;5.47;;;3.55;;
6007;SDS011;3032;49.484;11.112;2022-12-29T17:15:11;4.05;;;3.03;;
6007;SDS011;3032;49.484;11.112;2022-12-29T17:17:12;4.75;;;3.30;;
6007;SDS011;3032;49.484;11.112;2022-12-29T17:19:41;5.97;;;4.10;;
6007;SDS011;3032;49.484;11.112;2022-12-29T17:22:11;6.32;;;3.50;;
6007;SDS011;3032;49.484;11.112;2022-12-29T17:24:49;4.72;;;4.28;;
6007;SDS011;3032;49.484;11.112;2022-12-29T17:27:20;6.75;;;5.90;;
6007;SDS011;3032;49.484;11.112;2022-12-29T17:29:50;9.38;;;5.57;;
6007;SDS011;3032;49.484;11.112;2022-12-29T17:32:18;8.38;;;5.20;;
6007;SDS011;3032;49.484;11.112;2022-12-29T17:34:44;7.20;;;5.40;;
6007;SDS011;3032;49.484;11.112;2022-12-29T17:37:16;10.17;;;5.73;;
6007;SDS011;3032;49.484;11.112;2022-12-29T17:39:46;9.55;;;5.40;;
6007;SDS011;3032;49.484;11.112;2022-12-29T17:42:11;8.57;;;5.63;;
6007;SDS011;3032;49.484;11.112;2022-12-29T17:44:37;7.83;;;6.10;;
6007;SDS011;3032;49.484;11.112;2022-12-29T17:47:02;6.07;;;5.47;;